createdAt,value
2023-01-08T00:01:15.865Z,3.25
2023-01-08T00:03:43.573Z,2.10
2023-01-08T00:06:13.382Z,2.22
2023-01-08T00:11:08.670Z,2.30
2023-01-08T00:13:36.270Z,3.30
2023-01-08T00:16:04.812Z,3.08
2023-01-08T00:18:34.042Z,2.42
2023-01-08T00:21:02.281Z,2.50
2023-01-08T00:23:29.891Z,2.13
2023-01-08T00:25:57.433Z,3.67
2023-01-08T00:28:24.970Z,2.85
2023-01-08T00:30:52.660Z,2.83
2023-01-08T00:33:20.295Z,2.80
2023-01-08T00:35:49.224Z,2.75
2023-01-08T00:38:16.864Z,2.75
2023-01-08T00:40:44.465Z,2.70
2023-01-08T00:43:12.062Z,2.85
2023-01-08T00:45:39.644Z,4.18
2023-01-08T00:48:07.762Z,3.15
2023-01-08T00:50:35.412Z,2.78
2023-01-08T00:53:04.414Z,2.92
2023-01-08T00:55:31.989Z,2.90
2023-01-08T00:57:59.520Z,2.80
2023-01-08T01:00:27.216Z,2.95
2023-01-08T01:02:54.865Z,3.58
2023-01-08T01:05:22.456Z,3.13
2023-01-08T01:07:50.038Z,3.63
2023-01-08T01:10:18.976Z,3.72
2023-01-08T01:12:46.679Z,4.10
2023-01-08T01:15:16.670Z,4.05
2023-01-08T01:17:45.707Z,3.45
2023-01-08T01:20:15.870Z,3.47
2023-01-08T01:22:43.736Z,3.45
2023-01-08T01:25:11.883Z,4.32
2023-01-08T01:27:40.912Z,4.15
2023-01-08T01:30:09.628Z,3.03
2023-01-08T01:32:37.209Z,3.78
2023-01-08T01:35:05.241Z,4.25
2023-01-08T01:37:32.831Z,3.90
2023-01-08T01:40:00.410Z,3.42
2023-01-08T01:42:42.085Z,3.55
2023-01-08T01:45:18.304Z,2.95
2023-01-08T01:47:47.357Z,3.47
2023-01-08T01:50:17.233Z,3.22
2023-01-08T01:52:47.221Z,3.17
2023-01-08T01:55:15.482Z,4.07
2023-01-08T01:57:46.879Z,4.15
2023-01-08T02:00:16.772Z,3.97
2023-01-08T02:02:44.634Z,2.97
2023-01-08T02:05:12.333Z,3.45
2023-01-08T02:07:45.856Z,3.20
2023-01-08T02:10:17.871Z,2.90
2023-01-08T02:12:49.328Z,3.15
2023-01-08T02:15:22.064Z,3.15
2023-01-08T02:17:51.602Z,3.50
2023-01-08T02:20:22.551Z,3.70
2023-01-08T02:23:00.256Z,2.65
2023-01-08T02:25:40.024Z,3.50
2023-01-08T02:30:38.193Z,3.55
2023-01-08T02:33:05.869Z,3.13
2023-01-08T02:35:39.499Z,3.60
2023-01-08T02:38:07.226Z,2.97
2023-01-08T02:40:37.889Z,2.88
2023-01-08T02:43:10.995Z,2.67
2023-01-08T02:45:45.251Z,2.85
2023-01-08T02:48:14.362Z,3.20
2023-01-08T02:50:45.826Z,3.50
2023-01-08T02:53:15.552Z,2.60
2023-01-08T02:58:12.821Z,2.80
2023-01-08T03:00:41.225Z,2.47
2023-01-08T03:03:12.645Z,3.17
2023-01-08T03:05:42.445Z,3.88
2023-01-08T03:08:10.315Z,3.25
2023-01-08T03:10:39.809Z,2.65
2023-01-08T03:13:09.698Z,2.83
2023-01-08T03:15:43.764Z,3.17
2023-01-08T03:18:13.646Z,2.40
2023-01-08T03:20:41.521Z,2.33
2023-01-08T03:23:11.290Z,2.58
2023-01-08T03:28:11.268Z,2.10
2023-01-08T03:30:40.936Z,1.55
2023-01-08T03:35:39.097Z,2.35
2023-01-08T03:38:09.991Z,1.73
2023-01-08T03:40:40.730Z,1.92
2023-01-08T03:43:08.332Z,1.63
2023-01-08T03:45:38.172Z,1.88
2023-01-08T03:48:07.910Z,2.13
2023-01-08T03:53:02.955Z,2.20
2023-01-08T03:55:30.593Z,1.88
2023-01-08T03:57:58.156Z,2.85
2023-01-08T04:00:25.972Z,2.92
2023-01-08T04:02:53.660Z,3.00
2023-01-08T04:05:22.608Z,2.70
2023-01-08T04:07:50.198Z,3.00
2023-01-08T04:10:17.878Z,3.65
2023-01-08T04:12:45.411Z,3.30
2023-01-08T04:15:12.983Z,3.17
2023-01-08T04:17:40.539Z,3.03
2023-01-08T04:20:09.152Z,2.85
2023-01-08T04:22:38.125Z,3.08
2023-01-08T04:25:06.641Z,2.92
2023-01-08T04:27:34.525Z,3.03
2023-01-08T04:30:02.125Z,3.20
2023-01-08T04:32:29.679Z,3.30
2023-01-08T04:34:57.282Z,3.03
2023-01-08T04:37:24.859Z,3.35
2023-01-08T04:39:53.757Z,3.08
2023-01-08T04:42:21.318Z,3.20
2023-01-08T04:44:48.848Z,3.08
2023-01-08T04:47:16.472Z,3.55
2023-01-08T04:49:44.006Z,3.33
2023-01-08T04:52:11.590Z,3.13
2023-01-08T04:54:39.192Z,3.20
2023-01-08T04:57:08.111Z,2.70
2023-01-08T04:59:35.955Z,2.33
2023-01-08T05:02:03.711Z,3.13
2023-01-08T05:04:31.592Z,1.80
2023-01-08T05:06:59.178Z,2.63
2023-01-08T05:09:26.750Z,2.80
2023-01-08T05:11:54.319Z,1.73
2023-01-08T05:14:23.222Z,2.13
2023-01-08T05:16:50.807Z,2.03
2023-01-08T05:19:18.509Z,2.25
2023-01-08T05:21:46.137Z,2.25
2023-01-08T05:24:13.721Z,1.85
2023-01-08T05:26:41.267Z,2.17
2023-01-08T05:29:08.863Z,2.28
2023-01-08T05:31:37.850Z,2.40
2023-01-08T05:34:05.411Z,2.78
2023-01-08T05:36:32.953Z,2.10
2023-01-08T05:39:00.655Z,1.80
2023-01-08T05:41:28.343Z,1.90
2023-01-08T05:43:55.929Z,1.88
2023-01-08T05:46:23.596Z,2.13
2023-01-08T05:48:52.524Z,2.55
2023-01-08T05:51:20.106Z,2.50
2023-01-08T05:53:47.657Z,1.90
2023-01-08T05:56:15.330Z,2.63
2023-01-08T05:58:42.929Z,2.40
2023-01-08T06:01:12.096Z,2.38
2023-01-08T06:03:40.337Z,2.13
2023-01-08T06:06:11.535Z,1.67
2023-01-08T06:08:39.339Z,2.17
2023-01-08T06:11:08.516Z,2.50
2023-01-08T06:13:37.766Z,2.42
2023-01-08T06:16:06.034Z,2.78
2023-01-08T06:18:33.833Z,1.80
2023-01-08T06:21:02.717Z,2.25
2023-01-08T06:23:31.687Z,1.85
2023-01-08T06:26:04.000Z,2.25
2023-01-08T06:28:31.715Z,1.90
2023-01-08T06:30:59.862Z,1.95
2023-01-08T06:33:27.549Z,2.17
2023-01-08T06:35:55.287Z,1.80
2023-01-08T06:38:22.994Z,1.88
2023-01-08T06:40:51.988Z,2.25
2023-01-08T06:43:23.910Z,2.08
2023-01-08T06:45:54.820Z,1.65
2023-01-08T06:48:22.391Z,1.92
2023-01-08T06:50:49.969Z,2.10
2023-01-08T06:53:17.580Z,2.58
2023-01-08T06:55:45.307Z,2.00
2023-01-08T06:58:14.261Z,2.15
2023-01-08T07:00:42.626Z,1.83
2023-01-08T07:03:10.415Z,2.88
2023-01-08T07:05:38.038Z,2.40
2023-01-08T07:08:06.178Z,2.30
2023-01-08T07:10:35.558Z,2.05
2023-01-08T07:13:03.889Z,2.50
2023-01-08T07:15:32.874Z,2.03
2023-01-08T07:18:00.443Z,2.05
2023-01-08T07:20:27.992Z,2.15
2023-01-08T07:22:55.583Z,2.20
2023-01-08T07:25:25.248Z,2.70
2023-01-08T07:27:53.470Z,2.05
2023-01-08T07:30:29.310Z,1.50
2023-01-08T07:33:01.958Z,2.10
2023-01-08T07:35:29.628Z,2.17
2023-01-08T07:37:57.345Z,2.25
2023-01-08T07:40:25.215Z,2.03
2023-01-08T07:42:59.321Z,2.10
2023-01-08T07:45:27.394Z,2.95
2023-01-08T07:47:55.046Z,2.58
2023-01-08T07:50:24.039Z,2.00
2023-01-08T07:52:51.690Z,2.33
2023-01-08T07:55:19.277Z,2.30
2023-01-08T07:57:46.855Z,2.08
2023-01-08T08:00:15.761Z,1.92
2023-01-08T08:02:43.468Z,2.38
2023-01-08T08:05:11.176Z,2.60
2023-01-08T08:07:40.118Z,2.10
2023-01-08T08:10:08.162Z,1.92
2023-01-08T08:12:35.794Z,2.47
2023-01-08T08:15:03.382Z,1.85
2023-01-08T08:17:31.046Z,2.72
2023-01-08T08:19:58.612Z,2.38
2023-01-08T08:22:26.503Z,1.98
2023-01-08T08:24:55.438Z,1.83
2023-01-08T08:27:24.469Z,1.80
2023-01-08T08:29:52.025Z,2.50
2023-01-08T08:32:19.629Z,2.00
2023-01-08T08:34:47.242Z,1.48
2023-01-08T08:37:14.819Z,2.10
2023-01-08T08:39:42.385Z,2.67
2023-01-08T08:42:11.329Z,2.50
2023-01-08T08:44:40.713Z,2.22
2023-01-08T08:47:09.757Z,2.78
2023-01-08T08:49:37.390Z,2.00
2023-01-08T08:52:05.286Z,2.05
2023-01-08T08:54:32.988Z,2.25
2023-01-08T08:57:00.621Z,2.00
2023-01-08T08:59:29.587Z,2.38
2023-01-08T09:01:57.278Z,2.10
2023-01-08T09:04:24.971Z,2.20
2023-01-08T09:06:52.722Z,1.60
2023-01-08T09:09:20.262Z,2.05
2023-01-08T09:11:47.805Z,1.88
2023-01-08T09:14:15.556Z,2.08
2023-01-08T09:16:44.523Z,2.00
2023-01-08T09:19:12.231Z,1.67
2023-01-08T09:21:39.845Z,2.40
2023-01-08T09:24:08.454Z,2.05
2023-01-08T09:26:36.103Z,1.60
2023-01-08T09:29:04.121Z,1.83
2023-01-08T09:31:32.051Z,1.77
2023-01-08T09:34:01.041Z,1.67
2023-01-08T09:36:28.619Z,1.80
2023-01-08T09:38:56.178Z,1.88
2023-01-08T09:41:26.214Z,1.90
2023-01-08T09:43:55.294Z,1.77
2023-01-08T09:46:26.101Z,2.30
2023-01-08T09:48:56.017Z,1.80
2023-01-08T09:51:29.011Z,1.63
2023-01-08T09:53:59.047Z,2.28
2023-01-08T09:56:26.814Z,1.65
2023-01-08T09:58:56.035Z,2.67
2023-01-08T10:01:25.429Z,2.33
2023-01-08T10:03:57.125Z,1.88
2023-01-08T10:06:26.339Z,1.85
2023-01-08T10:08:54.043Z,2.05
2023-01-08T10:11:21.871Z,2.22
2023-01-08T10:13:52.272Z,2.65
2023-01-08T10:16:25.570Z,2.60
2023-01-08T10:18:53.169Z,2.10
2023-01-08T10:21:20.795Z,1.83
2023-01-08T10:23:53.948Z,1.95
2023-01-08T10:26:29.665Z,1.88
2023-01-08T10:29:12.337Z,1.90
2023-01-08T10:31:46.674Z,1.98
2023-01-08T10:34:23.737Z,1.90
2023-01-08T10:36:51.863Z,1.77
2023-01-08T10:39:23.939Z,1.60
2023-01-08T10:41:54.518Z,2.28
2023-01-08T10:44:23.694Z,2.40
2023-01-08T10:46:54.451Z,1.75
2023-01-08T10:49:27.510Z,1.70
2023-01-08T10:51:55.637Z,1.98
2023-01-08T10:54:36.081Z,2.28
2023-01-08T10:57:04.088Z,2.28
2023-01-08T10:59:32.107Z,1.90
2023-01-08T11:02:00.157Z,1.88
2023-01-08T11:04:32.389Z,1.73
2023-01-08T11:07:01.680Z,2.22
2023-01-08T11:09:32.084Z,1.90
2023-01-08T11:12:01.606Z,1.92
2023-01-08T11:14:31.694Z,1.77
2023-01-08T11:16:59.545Z,2.08
2023-01-08T11:19:28.771Z,1.70
2023-01-08T11:21:57.860Z,2.20
2023-01-08T11:24:27.976Z,2.27
2023-01-08T11:26:59.205Z,2.30
2023-01-08T11:29:32.579Z,1.92
2023-01-08T11:32:09.530Z,1.90
2023-01-08T11:34:40.538Z,1.75
2023-01-08T11:37:13.532Z,1.90
2023-01-08T11:39:41.151Z,1.83
2023-01-08T11:42:35.768Z,1.70
2023-01-08T11:45:14.085Z,1.83
2023-01-08T11:47:52.983Z,2.10
2023-01-08T11:50:23.391Z,2.10
2023-01-08T11:53:07.161Z,2.35
2023-01-08T11:55:45.259Z,2.17
2023-01-08T11:58:32.144Z,1.90
2023-01-08T12:01:10.229Z,2.10
2023-01-08T12:03:41.946Z,1.52
2023-01-08T12:06:17.883Z,1.90
2023-01-08T12:08:53.922Z,2.13
2023-01-08T12:11:25.461Z,2.10
2023-01-08T12:14:06.472Z,1.75
2023-01-08T12:16:49.891Z,1.77
2023-01-08T12:19:23.068Z,1.90
2023-01-08T12:22:02.790Z,1.80
2023-01-08T12:24:46.078Z,1.83
2023-01-08T12:27:26.030Z,1.60
2023-01-08T12:30:14.556Z,1.50
2023-01-08T12:55:27.301Z,1.40
2023-01-08T12:58:02.360Z,1.40
2023-01-08T13:35:31.389Z,1.88
2023-01-08T13:38:16.119Z,2.17
2023-01-08T13:40:56.582Z,1.70
2023-01-08T13:43:26.976Z,2.45
2023-01-08T14:13:21.400Z,2.70
2023-01-08T14:18:16.558Z,2.00
2023-01-08T14:20:46.133Z,2.10
2023-01-08T14:23:19.536Z,4.00
2023-01-08T14:25:50.151Z,3.10
2023-01-08T14:28:19.176Z,2.28
2023-01-08T14:30:51.009Z,2.10
2023-01-08T14:33:20.648Z,2.38
2023-01-08T14:35:49.105Z,2.33
2023-01-08T14:38:16.735Z,2.10
2023-01-08T14:40:47.126Z,2.13
2023-01-08T14:43:17.424Z,2.08
2023-01-08T14:45:47.674Z,2.35
2023-01-08T14:48:19.305Z,2.50
2023-01-08T14:50:59.709Z,2.15
2023-01-08T14:53:30.720Z,2.15
2023-01-08T14:55:58.949Z,1.88
2023-01-08T14:58:29.614Z,1.90
2023-01-08T15:00:58.978Z,2.45
2023-01-08T15:03:35.019Z,2.10
2023-01-08T15:06:02.867Z,2.00
2023-01-08T15:08:36.270Z,2.30
2023-01-08T15:11:05.731Z,1.60
2023-01-08T15:13:38.093Z,1.90
2023-01-08T15:16:10.768Z,1.70
2023-01-08T15:18:49.283Z,2.45
2023-01-08T15:21:18.339Z,1.70
2023-01-08T15:23:48.729Z,1.58
2023-01-08T15:26:16.922Z,1.85
2023-01-08T15:28:54.227Z,2.28
2023-01-08T15:31:29.726Z,1.85
2023-01-08T15:33:58.283Z,2.00
2023-01-08T15:36:25.974Z,1.80
2023-01-08T15:38:53.780Z,1.85
2023-01-08T15:41:36.655Z,1.85
2023-01-08T15:44:05.993Z,2.20
2023-01-08T15:46:33.863Z,2.42
2023-01-08T15:49:01.521Z,2.08
2023-01-08T15:51:31.639Z,2.17
2023-01-08T15:53:59.315Z,2.17
2023-01-08T15:56:26.899Z,2.00
2023-01-08T15:58:54.561Z,2.08
2023-01-08T16:01:23.653Z,2.10
2023-01-08T16:03:51.291Z,2.25
2023-01-08T16:06:18.873Z,2.13
2023-01-08T16:08:46.561Z,2.00
2023-01-08T16:11:14.503Z,2.20
2023-01-08T16:13:42.084Z,1.77
2023-01-08T16:16:10.445Z,2.25
2023-01-08T16:18:39.813Z,1.98
2023-01-08T16:21:08.670Z,2.22
2023-01-08T16:23:37.240Z,2.70
2023-01-08T16:26:06.874Z,2.72
2023-01-08T16:28:34.754Z,2.70
2023-01-08T16:31:02.551Z,2.75
2023-01-08T16:33:30.299Z,2.95
2023-01-08T16:36:00.310Z,3.28
2023-01-08T16:38:27.948Z,2.83
2023-01-08T16:40:56.770Z,2.50
2023-01-08T16:43:24.948Z,3.00
2023-01-08T16:45:52.589Z,2.92
2023-01-08T16:48:20.269Z,2.63
2023-01-08T16:50:48.071Z,2.88
2023-01-08T16:53:18.859Z,2.65
2023-01-08T16:55:46.448Z,2.63
2023-01-08T16:58:14.064Z,2.60
2023-01-08T17:00:41.691Z,3.33
2023-01-08T17:03:09.282Z,2.65
2023-01-08T17:05:37.784Z,2.08
2023-01-08T17:08:05.716Z,2.63
2023-01-08T17:10:35.050Z,2.30
2023-01-08T17:13:02.665Z,2.25
2023-01-08T17:15:30.274Z,2.30
2023-01-08T17:17:58.971Z,2.00
2023-01-08T17:20:26.724Z,2.20
2023-01-08T17:22:54.338Z,2.28
2023-01-08T17:25:21.905Z,2.10
2023-01-08T17:27:52.688Z,2.08
2023-01-08T17:30:21.707Z,2.45
2023-01-08T17:32:49.363Z,2.20
2023-01-08T17:35:17.125Z,2.13
2023-01-08T17:37:44.717Z,2.20
2023-01-08T17:40:13.632Z,2.45
2023-01-08T17:42:41.175Z,1.92
2023-01-08T17:45:11.359Z,2.20
2023-01-08T17:47:39.249Z,1.70
2023-01-08T17:50:07.150Z,1.55
2023-01-08T17:52:34.723Z,1.20
2023-01-08T17:55:02.343Z,1.65
2023-01-08T17:57:31.497Z,1.40
2023-01-08T17:59:59.633Z,2.17
2023-01-08T18:02:28.726Z,2.35
2023-01-08T18:04:56.538Z,3.00
2023-01-08T18:07:24.474Z,2.00
2023-01-08T18:09:54.326Z,2.08
2023-01-08T18:12:22.013Z,2.03
2023-01-08T18:14:49.621Z,2.72
2023-01-08T18:17:18.013Z,2.00
2023-01-08T18:19:46.962Z,2.08
2023-01-08T18:22:15.410Z,2.50
2023-01-08T18:24:43.104Z,1.98
2023-01-08T18:27:10.715Z,2.00
2023-01-08T18:29:38.303Z,1.70
2023-01-08T18:32:06.469Z,2.60
2023-01-08T18:34:34.321Z,1.40
2023-01-08T18:37:03.288Z,2.00
2023-01-08T18:39:30.924Z,1.70
2023-01-08T18:42:16.159Z,2.00
2023-01-08T18:44:43.769Z,1.65
2023-01-08T18:47:12.563Z,1.83
2023-01-08T18:49:40.157Z,1.90
2023-01-08T18:52:10.984Z,1.33
2023-01-08T18:54:38.683Z,1.73
2023-01-08T18:57:06.271Z,1.80
2023-01-08T18:59:33.901Z,1.58
2023-01-08T19:02:01.882Z,1.70
2023-01-08T19:04:29.586Z,2.03
2023-01-08T19:06:57.146Z,2.00
2023-01-08T19:09:26.109Z,1.98
2023-01-08T19:11:53.751Z,2.22
2023-01-08T19:14:21.325Z,1.50
2023-01-08T19:16:51.358Z,1.65
2023-01-08T19:19:19.310Z,2.10
2023-01-08T19:21:47.075Z,2.22
2023-01-08T19:24:14.964Z,1.90
2023-01-08T19:26:43.966Z,1.85
2023-01-08T19:29:11.593Z,2.50
2023-01-08T19:31:39.180Z,2.15
2023-01-08T19:34:06.723Z,2.05
2023-01-08T19:36:34.393Z,1.95
2023-01-08T19:39:02.033Z,2.47
2023-01-08T19:41:47.250Z,1.90
2023-01-08T19:44:16.224Z,2.30
2023-01-08T19:46:43.885Z,2.97
2023-01-08T19:49:12.183Z,2.10
2023-01-08T19:51:39.729Z,1.92
2023-01-08T19:54:07.456Z,2.00
2023-01-08T19:56:35.036Z,1.70
2023-01-08T19:59:02.631Z,1.83
2023-01-08T20:01:33.539Z,2.08
2023-01-08T20:04:01.275Z,1.90
2023-01-08T20:06:29.516Z,1.85
2023-01-08T20:08:59.206Z,1.70
2023-01-08T20:13:55.403Z,1.50
2023-01-08T20:16:24.266Z,1.98
2023-01-08T20:18:56.347Z,2.00
2023-01-08T20:21:24.205Z,1.60
2023-01-08T20:23:58.990Z,1.70
2023-01-08T20:26:27.442Z,1.67
2023-01-08T20:28:56.196Z,1.40
2023-01-08T20:31:26.140Z,1.87
2023-01-08T20:33:56.444Z,1.85
2023-01-08T20:36:25.292Z,1.80
2023-01-08T20:38:54.590Z,1.77
2023-01-08T20:41:22.351Z,1.42
2023-01-08T20:43:50.251Z,2.22
2023-01-08T20:46:17.831Z,1.80
2023-01-08T20:48:48.591Z,1.77
2023-01-08T20:51:17.574Z,5.78
2023-01-08T20:53:45.230Z,2.33
2023-01-08T20:56:14.148Z,1.42
2023-01-08T20:58:43.394Z,1.85
2023-01-08T21:01:13.534Z,2.08
2023-01-08T21:03:41.348Z,1.70
2023-01-08T21:06:10.169Z,1.90
2023-01-08T21:08:40.137Z,1.80
2023-01-08T21:11:08.950Z,2.22
2023-01-08T21:13:37.511Z,1.83
2023-01-08T21:16:07.539Z,2.17
2023-01-08T21:18:35.232Z,2.15
2023-01-08T21:21:04.497Z,2.05
2023-01-08T21:23:33.901Z,3.10
2023-01-08T21:26:04.579Z,2.40
2023-01-08T21:28:32.193Z,2.20
2023-01-08T21:31:05.691Z,2.15
2023-01-08T21:33:33.371Z,2.65
2023-01-08T21:36:04.319Z,2.22
2023-01-08T21:38:32.144Z,2.30
2023-01-08T21:41:00.578Z,2.17
2023-01-08T21:43:47.399Z,2.40
2023-01-08T21:46:16.199Z,2.50
2023-01-08T21:48:44.077Z,2.20
2023-01-08T21:51:25.749Z,1.95
2023-01-08T21:53:53.384Z,2.47
2023-01-08T21:56:21.123Z,2.42
2023-01-08T21:58:50.081Z,2.30
2023-01-08T22:01:17.840Z,2.28
2023-01-08T22:03:45.526Z,2.03
2023-01-08T22:06:13.118Z,2.08
2023-01-08T22:08:40.718Z,2.60
2023-01-08T22:11:09.541Z,2.75
2023-01-08T22:13:39.126Z,3.10
2023-01-08T22:16:10.548Z,2.38
2023-01-08T22:18:38.521Z,2.80
2023-01-08T22:21:07.780Z,2.80
2023-01-08T22:23:35.492Z,2.70
2023-01-08T22:26:05.074Z,2.47
2023-01-08T22:28:33.047Z,2.60
2023-01-08T22:31:00.891Z,2.53
2023-01-08T22:33:29.874Z,2.03
2023-01-08T22:35:57.433Z,2.28
2023-01-08T22:38:25.141Z,1.50
2023-01-08T22:40:52.718Z,1.55
2023-01-08T22:43:20.313Z,1.30
2023-01-08T22:45:53.024Z,1.10
2023-01-08T22:48:20.687Z,1.77
2023-01-08T22:50:49.658Z,1.25
2023-01-08T22:53:17.519Z,0.80
2023-01-08T22:55:47.256Z,1.60
2023-01-08T23:00:42.854Z,1.05
2023-01-08T23:03:10.474Z,1.00
2023-01-08T23:05:38.183Z,1.40
2023-01-08T23:08:07.655Z,1.30
2023-01-08T23:10:35.413Z,1.45
2023-01-08T23:13:03.174Z,1.35
2023-01-08T23:15:30.790Z,0.90
2023-01-08T23:17:58.369Z,1.02
2023-01-08T23:20:26.027Z,1.20
2023-01-08T23:22:54.442Z,1.48
2023-01-08T23:25:23.472Z,1.20
2023-01-08T23:27:51.286Z,1.65
2023-01-08T23:30:19.017Z,1.30
2023-01-08T23:32:46.622Z,1.00
2023-01-08T23:35:14.234Z,0.82
2023-01-08T23:37:42.011Z,1.40
2023-01-08T23:40:11.244Z,1.20
2023-01-08T23:42:40.186Z,1.52
2023-01-08T23:45:11.142Z,1.20
2023-01-08T23:47:38.821Z,1.33
2023-01-08T23:50:07.579Z,1.90
2023-01-08T23:52:35.184Z,1.97
2023-01-08T23:55:02.763Z,1.55
2023-01-08T23:57:30.363Z,1.23
2023-01-08T23:59:59.286Z,0.98
